Terminal Aerodrome Forecast
Issued by NWS Central Illinois

Home | Current Version | Previous Version | Text Only | Print | Product List | Glossary On
Versions: 1 2 3 4 5 6 7 8 9 10 11 12 13 14 15 16 17 18 19 20 21
713
FTUS43 KILX 230520
TAFPIA
TAF
KPIA 230520Z 2306/2406 34006KT P6SM VCSH SCT015 BKN100
     FM231000 VRB05KT 6SM BR SCT100 BKN250
     FM231400 29012KT P6SM BKN250
     FM232300 29008KT P6SM SCT060=

USA.gov is the U.S. government's official web portal to all federal, state and local government web resources and services.